Etusivu
METAR-TAF:

METAR-TAF

Lentoasemat :

Yellowknife, Luoteisterritoriot, Kanada

Yellowknifen lentoasema

Leveyspiiri: 62-28N, Pituuspiiri: 114-27W, korkeus merenpinnasta: 205 m

Tämänhetkinen sää

Tämä raportti tehtiin 1 tunti ja 9 minuuttia sitten, kello 19.00 UTC
Tuuli 10 kn idästä
Lämpötila -12°C
Kosteus 51%
Ilmanpaine 1021 hPa
Näkyvyys: 24.1 km
Muutamia pilviä 24000 ft:n korkeudessa

METAR: CYZF 231900Z 09010KT 15SM FEW240 M12/M20 A3015 RMK CI2 SLP236

Aika: 14:09 (20:09 UTC)

Sääennuste

Tämä raportti tehtiin 2 tuntia ja 31 minuuttia sitten, kello 17.38 UTC
Ennuste voimassa 23. päivästä klo 18 UTC - 24. päivään klo 18 UTC
Tuuli 10 kn idästä puuskistuen 20 kn:hen
Näkyvyys: 10 km
Muutamia pilviä 24000 ft:n korkeudessa
From 24. päivästä klo 1400 UTC
Tuuli 12 kn idästä/kaakosta
Näkyvyys: 8.0 km
Hajonneita pilviä 2500 ft:n korkeudessa
heikkoa lumisadetta

TAF: CYZF 231738Z 2318/2418 09010G20KT P6SM FEW240 FM241400 11012KT 5SM -SN BKN025 RMK NXT FCST BY 240000Z

Säähavainnot ja -ennusteet yli 4000 lentoasemalta (METAR- ja TAF-raportit).

Käytössä olevat sääasemat on merkitty karttaan keltaisilla ja punaisilla pisteillä.

Aseta hiiri pisteen päälle nähdäksesi sääaseman nimen.

Klikkaa sitten nähdäksesi säähavainnot ja -ennusteet.

Kartan vaihtaminen: klikkaa mustalla rastilla varustettuja vihreitä pisteitä, niin voit zoomata sisään; viivalla varustettua vihreää pistettä, niin voit zoomata ulos tai vihreitä nuolia, niin pääset viereisille kartoille.


METAR-TAF: